Flight Track Log - Related Links

Times and Time Zones

All times are in EDT time to prevent confusion due to time zone crossing. See the TSC316 flight status page for this flight to view local times or setup timezone preferences in your user account.

Time Position Orientation Groundspeed Altitude Reporting Facility
EDT Latitude Longitude Course Direction KTS MPH feet Rate Location/Type
Thu 06:37:21 AM 43.6598 -79.6253 227° Southwest 149 171 1,500  Level FlightAware ADS-B (EPLB / LUZ)
Thu 06:37:29 AM 43.6564 -79.6301 226° Southwest 140 161 2,000 3,900 Climbing FlightAware ADS-B (CYYZ)
Thu 06:37:41 AM 43.6511 -79.6369 221° Southwest 138 159 2,800 3,200 Climbing FlightAware ADS-B (EPLB / LUZ)
Thu 06:37:44 AM 43.6494 -79.6390 221° Southwest 143 165 2,800 2,333 Level FlightAware ADS-B (CYYZ)
Thu 06:37:59 AM 43.6415 -79.6479 219° Southwest 150 173 3,500 2,690 Climbing FlightAware ADS-B (CYYZ)
Thu 06:38:13 AM 43.6331 -79.6572 219° Southwest 162 186 4,100 1,800 Climbing FlightAware ADS-B (CYYZ)
Thu 06:38:29 AM 43.6235 -79.6679 220° Southwest 191 220 4,400 1,412 Climbing FlightAware ADS-B (CYYZ)
Thu 06:38:30 AM 43.6221 -79.6694 219° Southwest 190 219 4,500 1,714 Climbing FlightAware ADS-B
Thu 06:38:43 AM 43.6125 -79.6803 221° Southwest 219 252 4,800 1,750 Climbing FlightAware ADS-B (CYYZ)
Thu 06:38:54 AM 43.6042 -79.6900 221° Southwest 235 270 5,200 2,625 Climbing FlightAware ADS-B (EPLB / LUZ)
Thu 06:38:59 AM 43.6003 -79.6948 218° Southwest 238 274 5,500 3,600 Climbing FlightAware ADS-B (CYYZ)
Thu 06:39:04 AM 43.5957 -79.6991 210° Southwest 242 278 5,800 4,667 Climbing FlightAware ADS-B (CYYZ)
Thu 06:39:08 AM 43.5915 -79.7020 201° Southwest 248 285 6,200 4,200 Climbing FlightAware ADS-B (CYYZ)
Thu 06:39:14 AM 43.5850 -79.7048 193° South 254 292 6,500 3,600 Climbing FlightAware ADS-B (CYYZ)
Thu 06:39:18 AM 43.5791 -79.7062 188° South 258 297 6,800 4,000 Climbing FlightAware ADS-B (CYYZ)
Thu 06:39:20 AM 43.5801 -79.7061 189° South 257 296 6,900 3,750 Climbing FlightAware ADS-B
Thu 06:39:26 AM 43.5729 -79.7071 182° South 263 303 7,300 5,333 Climbing FlightAware ADS-B (EPLB / LUZ)
Thu 06:39:29 AM 43.5660 -79.7074 181° South 265 305 7,700 4,500 Climbing FlightAware ADS-B
Thu 06:39:34 AM 43.5619 -79.7075 182° South 266 306 7,900 3,176 Climbing FlightAware ADS-B (CYYZ)
Thu 06:39:46 AM 43.5465 -79.7084 184° South 270 311 8,600 3,600 Climbing FlightAware ADS-B (EPLB / LUZ)
Thu 06:39:49 AM 43.5431 -79.7087 185° South 269 310 8,800 4,235 Climbing FlightAware ADS-B (CYYZ)
Thu 06:40:03 AM 43.5242 -79.7112 187° South 275 316 9,800 4,125 Climbing FlightAware ADS-B (CYYZ)
Thu 06:40:05 AM 43.5223 -79.7115 186° South 277 319 9,900 2,000 Climbing FlightAware ADS-B (EPLB / LUZ)
Thu 06:40:33 AM 43.4841 -79.7170 185° South 286 329 10,800 1,765 Climbing FlightAware ADS-B (CYYZ)
Thu 06:40:39 AM 43.4765 -79.7178 184° South 287 330 10,900 968 Climbing FlightAware ADS-B
Thu 06:41:04 AM 43.4449 -79.7201 183° South 286 329 11,300 1,273 Climbing FlightAware ADS-B (CYYZ)
Thu 06:41:12 AM 43.4350 -79.7208 183° South 285 328 11,600 2,276 Climbing FlightAware ADS-B
Thu 06:41:33 AM 43.4063 -79.7228 184° South 300 345 12,400 2,057 Climbing FlightAware ADS-B (CYYZ)
Thu 06:41:47 AM 43.3862 -79.7247 184° South 319 367 12,800 1,800 Climbing FlightAware ADS-B
Thu 06:42:03 AM 43.3610 -79.7271 185° South 341 392 13,300 2,743 Climbing FlightAware ADS-B (CYYZ)
Thu 06:42:22 AM 43.3308 -79.7299 184° South 348 400 14,400 3,290 Climbing FlightAware ADS-B
Thu 06:42:34 AM 43.3131 -79.7310 180° South 356 410 15,000 3,158 Climbing FlightAware ADS-B (CYYZ)
Thu 06:42:41 AM 43.3026 -79.7305 172° South 365 420 15,400 3,000 Climbing FlightAware ADS-B
Thu 06:42:44 AM 43.2951 -79.7288 167° South 368 423 15,500 3,750 Climbing FlightAware ADS-B (CYYZ)
Thu 06:42:49 AM 43.2863 -79.7254 161° South 376 433 15,900 2,897 Climbing FlightAware ADS-B
Thu 06:43:13 AM 43.2466 -79.7043 156° South 391 450 16,900 2,813 Climbing FlightAware ADS-B (CYYZ)
Thu 06:43:21 AM 43.2338 -79.6967 156° South 397 457 17,400 3,097 Climbing FlightAware ADS-B
Thu 06:43:44 AM 43.1946 -79.6734 156° South 403 464 18,500 3,176 Climbing FlightAware ADS-B (CYYZ)
Thu 06:44:12 AM 43.1461 -79.6457 158° South 407 468 20,100 3,400 Climbing FlightAware ADS-B
Thu 06:44:14 AM 43.1429 -79.6440 158° South 407 468 20,200 2,250 Climbing FlightAware ADS-B (CYYZ)
Thu 06:44:20 AM 43.1347 -79.6396 157° South 405 466 20,400 2,800 Climbing FlightAware ADS-B
Thu 06:44:44 AM 43.0908 -79.6154 157° South 415 478 21,600 3,077 Climbing FlightAware ADS-B (CYYZ)
Thu 06:44:59 AM 43.0683 -79.6028 158° South 424 488 22,400 2,690 Climbing FlightAware ADS-B
Thu 06:45:13 AM 43.0374 -79.5855 157° South 427 491 22,900 1,875 Climbing FlightAware ADS-B (CYYZ)
Thu 06:45:31 AM 43.0099 -79.5702 158° South 441 507 23,400 1,600 Climbing FlightAware ADS-B
Thu 06:45:43 AM 42.9795 -79.5532 157° South 451 519 23,700 1,800 Climbing FlightAware ADS-B (CYYZ)
Thu 06:46:01 AM 42.9752 -79.5510 158° South 457 526 24,300 1,935 Climbing FlightAware ADS-B
Thu 06:46:14 AM 42.9222 -79.5214 157° South 464 534 24,700 1,935 Climbing FlightAware ADS-B (CYYZ)
Thu 06:46:32 AM 42.8840 -79.5003 158° South 472 543 25,300 2,276 Climbing FlightAware ADS-B
Thu 06:46:43 AM 42.8558 -79.4924 157° South 475 547 25,800 2,118 Climbing FlightAware ADS-B (CYYZ)
Thu 06:47:06 AM 42.8155 -79.4623 158° South 483 556 26,500 1,742 Climbing FlightAware ADS-B (EPLB / LUZ)
Thu 06:47:14 AM 42.8011 -79.4544 157° South 484 557 26,700 2,000 Climbing FlightAware ADS-B (CYYZ)
Thu 06:47:39 AM 42.7461 -79.4241 158° South 493 567 27,600 2,069 Climbing FlightAware ADS-B
Thu 06:47:43 AM 42.7356 -79.4183 157° South 493 567 27,700 2,229 Climbing FlightAware ADS-B (CYYZ)
Thu 06:48:14 AM 42.6727 -79.3839 157° South 493 567 28,900 2,400 Climbing FlightAware ADS-B (CYYZ)
Thu 06:48:18 AM 42.6633 -79.3786 158° South 492 566 29,100 2,400 Climbing FlightAware ADS-B (EPLB / LUZ)
Thu 06:48:44 AM 42.6095 -79.3493 158° South 489 563 30,100 2,423 Climbing FlightAware ADS-B (CYYZ)
Thu 06:49:10 AM 42.5541 -79.3189 158° South 487 560 31,200 2,400 Climbing FlightAware ADS-B (EPLB / LUZ)
Thu 06:49:14 AM 42.5473 -79.3151 158° South 487 560 31,300 1,818 Climbing FlightAware ADS-B (CYYZ)
Thu 06:49:43 AM 42.4876 -79.2827 158° South 489 563 32,200 2,057 Climbing FlightAware ADS-B (CYYZ)
Thu 06:49:49 AM 42.4777 -79.2773 158° South 488 562 32,500 2,167 Climbing FlightAware ADS-B (EPLB / LUZ)
Thu 06:50:19 AM 42.4115 -79.2412 158° South 486 559 33,500 1,800 Climbing FlightAware ADS-B (EPLB / LUZ)
Thu 06:50:29 AM 42.3916 -79.2303 158° South 485 558 33,700 1,500 Climbing FlightAware ADS-B (CYYZ)
Thu 06:50:59 AM 42.3284 -79.1963 158° South 486 559 34,500 1,368 Climbing FlightAware ADS-B (CYYZ)
Thu 06:51:26 AM 42.2708 -79.1654 158° South 491 565 35,000 600 Climbing FlightAware ADS-B (EPLB / LUZ)
Thu 06:51:49 AM 42.2253 -79.1403 156° South 493 567 35,000  Level FlightAware ADS-B (CYYZ)
Thu 06:52:13 AM 42.1715 -79.1054 151° Southeast 495 570 35,000  Level FlightAware ADS-B (EPLB / LUZ)
Thu 06:52:19 AM 42.1707 -79.1045 149° Southeast 494 568 35,000  Level FlightAware ADS-B (CYYZ)
Thu 06:53:14 AM 42.0561 -79.0022 145° Southeast 492 566 35,000  Level FlightAware ADS-B (CYYZ)
Thu 06:53:18 AM 42.0506 -78.9969 145° Southeast 492 566 35,000  Level FlightAware ADS-B (EPLB / LUZ)
Thu 06:53:44 AM 42.0009 -78.9512 146° Southeast 492 566 35,000  Level FlightAware ADS-B (CYYZ)
Thu 06:54:14 AM 41.9449 -78.9011 146° Southeast 494 568 35,000  Level FlightAware ADS-B (CYYZ)
Thu 06:54:44 AM 41.8912 -78.8529 146° Southeast 496 571 35,000  Level FlightAware ADS-B (CYYZ)
Thu 06:55:14 AM 41.8301 -78.7982 146° Southeast 497 572 35,000  Level FlightAware ADS-B (CYYZ)
Thu 06:55:44 AM 41.7740 -78.7474 145° Southeast 497 572 35,000  Level FlightAware ADS-B (CYYZ)
Thu 06:56:14 AM 41.7173 -78.6966 146° Southeast 496 571 35,000  Level FlightAware ADS-B (CYYZ)
Thu 06:56:43 AM 41.6610 -78.6465 146° Southeast 496 571 35,000  Level FlightAware ADS-B (CYYZ)
Thu 06:57:13 AM 41.6195 -78.6098 146° Southeast 497 572 35,000  Level FlightAware ADS-B (CYYZ)
Thu 06:57:43 AM 41.5840 -78.5782 146° Southeast 497 572 35,000  Level FlightAware ADS-B (CYYZ)
Thu 06:58:11 AM 41.5340 -78.5339 146° Southeast 497 572 35,000  Level FlightAware ADS-B (CYYZ)
Thu 06:58:50 AM 41.4381 -78.4481 146° Southeast 496 571 35,000  Level Cleveland Center
Thu 06:59:52 AM 41.3033 -78.3300 147° Southeast 497 572 35,000  Level Cleveland Center
Thu 07:05:18 AM 41.5869 -78.5809 151° Southeast 499 574 35,000  Level FlightAware ADS-B
Thu 07:06:02 AM 40.5886 -77.7519 151° Southeast 497 572 35,000  Level Cleveland Center
Thu 07:10:53 AM 39.9807 -77.3198 152° Southeast 499 574 35,000  Level FlightAware ADS-B
Thu 07:11:36 AM 39.9039 -77.2657 152° Southeast 494 568 35,000  Level FlightAware ADS-B (KPHL)
Thu 07:12:08 AM 39.8285 -77.2124 152° Southeast 497 572 35,000  Level FlightAware ADS-B
Thu 07:12:48 AM 39.7485 -77.1560 152° Southeast 498 573 35,000  Level FlightAware ADS-B
Thu 07:13:23 AM 39.6976 -77.1202 152° Southeast 496 571 35,000  Level FlightAware ADS-B (KPHL)
Thu 07:14:00 AM 39.6139 -77.0618 152° Southeast 491 565 35,000  Level FlightAware ADS-B
Thu 07:14:31 AM 39.5424 -77.0131 155° Southeast 495 570 35,000  Level FlightAware ADS-B (KPHL)
Thu 07:15:01 AM 39.4887 -76.9845 161° South 495 570 35,000  Level FlightAware ADS-B
Thu 07:15:31 AM 39.4144 -76.9558 167° South 494 568 35,000  Level FlightAware ADS-B
Thu 07:16:03 AM 39.3406 -76.9336 167° South 494 568 35,000  Level FlightAware ADS-B (KPHL)
Thu 07:16:13 AM 39.3360 -76.9321 166° South 493 567 35,000  Level FlightAware ADS-B (KDAA)
Thu 07:16:41 AM 39.2582 -76.9083 167° South 493 567 35,000  Level FlightAware ADS-B
Thu 07:17:08 AM 39.1989 -76.8906 166° South 494 568 35,000  Level FlightAware ADS-B (KDAA)
Thu 07:17:11 AM 39.1800 -76.8966 167° South 494 568 35,000  Level FlightAware ADS-B
Thu 07:17:37 AM 39.1363 -76.8718 167° South 495 570 35,000  Level FlightAware ADS-B (KDAA)
Thu 07:17:50 AM 39.1089 -76.8635 167° South 496 571 35,000  Level FlightAware ADS-B
Thu 07:18:07 AM 39.0649 -76.8506 167° South 496 571 35,000  Level FlightAware ADS-B (KDAA)
Thu 07:18:30 AM 39.0141 -76.8356 167° South 497 572 35,000  Level FlightAware ADS-B
Thu 07:18:38 AM 38.9990 -76.8310 167° South 497 572 35,000  Level FlightAware ADS-B (KDAA)
Thu 07:19:00 AM 38.9503 -76.8168 167° South 497 572 35,000  Level FlightAware ADS-B
Thu 07:19:07 AM 38.9335 -76.8118 167° South 497 572 35,000  Level FlightAware ADS-B (KDAA)
Thu 07:19:37 AM 38.8637 -76.7914 167° South 498 573 35,000  Level FlightAware ADS-B (KDAA)
Thu 07:19:51 AM 38.8335 -76.7825 167° South 499 574 35,000  Level FlightAware ADS-B
Thu 07:20:08 AM 38.7991 -76.7723 167° South 499 574 35,000  Level FlightAware ADS-B (KDAA)
Thu 07:20:21 AM 38.7745 -76.7651 167° South 500 575 35,000  Level FlightAware ADS-B
Thu 07:20:37 AM 38.7295 -76.7521 167° South 500 575 35,000  Level FlightAware ADS-B (KDAA)
Thu 07:21:07 AM 38.6612 -76.7386 174° South 498 573 35,000  Level FlightAware ADS-B (KDAA)
Thu 07:21:37 AM 38.5923 -76.7300 174° South 496 571 35,000  Level FlightAware ADS-B (KDAA)
Thu 07:22:08 AM 38.5257 -76.7212 174° South 497 572 35,000  Level FlightAware ADS-B (KDAA)
Thu 07:22:32 AM 38.4840 -76.7154 174° South 498 573 35,000  Level FlightAware ADS-B
Thu 07:22:36 AM 38.4595 -76.7121 173° South 497 572 35,000  Level FlightAware ADS-B (KDAA)
Thu 07:23:28 AM 38.3515 -76.6978 174° South 504 580 35,000  Level FlightAware ADS-B (KDAA)
Thu 07:24:05 AM 38.2634 -76.6864 174° South 504 580 35,000  Level FlightAware ADS-B (KDAA)
Thu 07:24:16 AM 38.2280 -76.6816 174° South 504 580 35,000  Level FlightAware ADS-B (KDAA)
Thu 07:24:48 AM 38.1359 -76.6805 174° South 503 579 35,000  Level FlightAware ADS-B (KDAA)
Thu 07:25:54 AM 38.0081 -76.6511 174° South 504 580 35,000  Level Washington Center
Thu 07:26:54 AM 37.8683 -76.6333 174° South 504 580 35,000  Level Washington Center
Thu 07:27:54 AM 37.7308 -76.6133 173° South 504 580 35,000  Level Washington Center
Thu 07:28:55 AM 37.6086 -76.5250 150° Southeast 486 559 35,000  Level Washington Center
Thu 07:29:55 AM 37.4925 -76.4189 144° Southeast 497 572 35,000  Level Washington Center
Thu 07:30:56 AM 37.3783 -76.3158 144° Southeast 509 586 35,000  Level Washington Center
Thu 07:31:54 AM 37.2622 -76.2103 144° Southeast 515 593 35,000  Level Washington Center
Thu 07:32:55 AM 37.1625 -76.1261 146° Southeast 503 579 35,000  Level Washington Center
Thu 07:33:56 AM 37.0503 -76.0239 144° Southeast 503 579 35,000  Level Washington Center
Thu 07:34:56 AM 36.9192 -75.9114 146° Southeast 507 583 35,000  Level Washington Center
Thu 07:35:54 AM 36.8214 -75.8203 143° Southeast 507 583 35,000  Level Washington Center
Thu 07:36:55 AM 36.7067 -75.7242 146° Southeast 501 577 35,000 98 Level Washington Center
Thu 07:37:56 AM 36.5858 -75.6178 145° Southeast 496 571 35,200 632 Climbing Washington Center
Thu 07:40:05 AM 36.3328 -75.3967 145° Southeast 506 582 37,000 571 Climbing New York Center
Thu 07:41:05 AM 36.2178 -75.2994 146° Southeast 506 582 37,000  Level New York Center
Thu 07:42:05 AM 36.1067 -75.2006 144° Southeast 506 582 37,000  Level New York Center
Thu 07:43:05 AM 35.9936 -75.1042 145° Southeast 501 577 37,000  Level New York Center
Thu 07:44:06 AM 35.8803 -75.0106 146° Southeast 501 577 37,000 -50 Level New York Center
Thu 07:45:05 AM 35.7711 -74.9097 143° Southeast 496 571 36,900 -50 Descending New York Center
Thu 07:46:05 AM 35.6575 -74.8194 147° Southeast 496 571 36,900 -100 Level New York Center
Thu 07:47:05 AM 35.5439 -74.7267 146° Southeast 489 563 36,700 -500 Descending New York Center
Thu 07:48:05 AM 35.4325 -74.6269 144° Southeast 489 563 35,900 -800 Descending New York Center
Thu 07:49:05 AM 35.3125 -74.5317 147° Southeast 499 574 35,100 -450 Descending New York Center
Thu 07:50:05 AM 35.1947 -74.4322 145° Southeast 506 582 35,000 -50 Descending New York Center
Thu 07:51:05 AM 35.0808 -74.3303 144° Southeast 512 589 35,000  Level New York Center
Thu 07:52:05 AM 34.9628 -74.2389 148° Southeast 512 589 35,000  Level New York Center
Thu 07:53:05 AM 34.8467 -74.1403 145° Southeast 512 589 35,000  Level New York Center
Thu 07:54:05 AM 34.7283 -74.0467 147° Southeast 512 589 35,000  Level New York Center
Thu 07:55:05 AM 34.6344 -73.9722 147° Southeast 517 595 35,000  Level New York Center
Thu 07:56:05 AM 34.4981 -73.8558 145° Southeast 511 588 35,000  Level New York Center
Thu 07:57:05 AM 34.3814 -73.7683 148° Southeast 500 575 35,000 -50 Level New York Center
Thu 07:58:05 AM 34.2533 -73.7158 161° South 480 552 34,900  Descending New York Center
Thu 07:59:05 AM 34.1311 -73.6864 169° South 461 531 35,000 65 Climbing New York Center
Thu 07:59:38 AM 34.3667 -73.7667 165° South 446 513 35,000  Level New York Oceanic (ODAPS)
Thu 08:33:50 AM 30.1667 -72.4500 166° South 433 498 35,000  Level New York Oceanic (ODAPS)
Thu 09:11:42 AM 25.4789 -71.1442 182° South 530 610 35,000  Level Miami Center
Thu 09:12:00 AM 25.4703 -71.1416 166° South 433 498 35,000  Level FlightAware Transoceanic
Thu 09:12:44 AM 25.3597 -71.1042 163° South 450 518 35,000  Level Miami Center
Thu 09:13:00 AM 25.3527 -71.1103 166° South 433 498 35,000  Level FlightAware Transoceanic
Thu 09:13:46 AM 25.2397 -71.0781 169° South 448 516 35,000  Level Miami Center
Thu 09:14:00 AM 25.2351 -71.0790 166° South 433 498 35,000  Level FlightAware Transoceanic
Thu 09:14:48 AM 25.1200 -71.0425 165° South 446 513 35,000  Level Miami Center
Thu 09:15:00 AM 25.1176 -71.0478 166° South 433 498 35,000  Level FlightAware Transoceanic
Thu 09:15:50 AM 25.0008 -71.0069 165° South 445 512 35,000  Level Miami Center
Thu 09:16:00 AM 25.0000 -71.0167 182° South 433 498 35,000  Level FlightAware Transoceanic
Thu 09:16:51 AM 24.8575 -70.9894 174° South 441 507 35,000  Level Miami Center
Thu 09:17:00 AM 24.8764 -71.0214 182° South 433 498 35,000  Level FlightAware Transoceanic
Thu 09:17:53 AM 24.7361 -70.9758 174° South 441 507 35,000  Level Miami Center
Thu 09:18:55 AM 24.6156 -70.9692 177° South 440 506 35,000  Level Miami Center
Thu 09:19:57 AM 24.4947 -70.9583 175° South 439 505 35,000  Level Miami Center
Thu 09:20:59 AM 24.3739 -70.9475 175° South 438 504 35,000  Level Miami Center
Thu 09:22:01 AM 24.2525 -70.9369 175° South 438 504 35,000  Level Miami Center
Thu 09:24:05 AM 23.9858 -70.9128 175° South 438 504 35,000  Level Miami Center
Thu 09:25:07 AM 23.8639 -70.9008 175° South 438 504 35,000  Level Miami Center
Thu 09:26:09 AM 23.7414 -70.8922 176° South 438 504 35,000  Level Miami Center
Thu 09:27:11 AM 23.6186 -70.8822 176° South 438 504 35,000  Level Miami Center
Thu 09:28:12 AM 23.4969 -70.8778 178° South 438 504 35,000  Level Miami Center
Thu 09:29:14 AM 23.3756 -70.8758 179° South 438 504 35,000  Level Miami Center
Thu 09:30:16 AM 23.2294 -70.8719 179° South 438 504 35,000  Level Miami Center
Thu 09:31:18 AM 23.1081 -70.8703 179° South 437 503 35,000  Level Miami Center
Thu 09:32:20 AM 22.9850 -70.8669 179° South 437 503 35,000  Level Miami Center
Thu 09:33:22 AM 22.8614 -70.8631 178° South 438 504 35,000  Level Miami Center
Thu 09:34:23 AM 22.7369 -70.8578 178° South 440 506 35,000  Level Miami Center
Thu 09:35:25 AM 22.6122 -70.8558 179° South 442 509 35,000  Level Miami Center
Thu 09:37:29 AM 22.3378 -70.8475 178° South 444 511 35,000  Level Miami Center
Thu 09:38:31 AM 22.2131 -70.8442 179° South 444 511 35,000  Level Miami Center
Thu 09:39:33 AM 22.0878 -70.8397 178° South 444 511 35,000  Level Miami Center
Thu 09:40:35 AM 21.9611 -70.8369 179° South 447 514 35,000 -293 Level Miami Center
Thu 09:41:36 AM 21.8356 -70.8336 179° South 448 516 34,400 -829 Descending Miami Center
Thu 09:42:38 AM 21.7072 -70.8300 179° South 449 517 33,300 -1,500 Descending Miami Center
Thu 09:43:40 AM 21.5789 -70.8258 178° South 452 520 31,300 -1,984 Descending Miami Center
Thu 09:44:42 AM 21.4558 -70.8219 178° South 447 514 29,200 -2,032 Descending Miami Center
Thu 09:45:44 AM 21.3392 -70.8197 179° South 430 495 27,100 -2,226 Descending Miami Center
Thu 09:46:46 AM 21.2061 -70.8167 179° South 408 470 24,600 -2,195 Descending Miami Center
Thu 09:47:47 AM 21.0978 -70.8136 178° South 396 456 22,600 -1,951 Descending Miami Center
Thu 09:48:49 AM 20.9939 -70.8106 178° South 383 441 20,600 -1,887 Descending Miami Center
Thu 09:49:51 AM 20.8936 -70.8078 179° South 370 426 18,700 -1,790 Descending Miami Center
Thu 09:50:53 AM 20.7956 -70.8050 178° South 360 414 16,900 -1,742 Descending Miami Center
Thu 09:51:55 AM 20.7006 -70.8019 178° South 349 402 15,100 -1,790 Descending Miami Center
Thu 09:52:57 AM 20.6089 -70.7997 179° South 338 389 13,200 -1,887 Descending Miami Center
Thu 09:53:59 AM 20.5014 -70.7967 178° South 328 377 11,200 -1,452 Descending Miami Center
Thu 09:55:01 AM 20.4147 -70.7956 179° South 319 367 10,200 -1,194 Descending Miami Center
Thu 09:57:05 AM 20.2503 -70.8019 182° South 299 344 7,500 -1,065 Descending Miami Center
Thu 09:59:09 AM 20.0944 -70.8103 183° South 283 326 5,800 -823 Descending Miami Center
Thu 10:01:00 AM 19.9062 -70.6758 159° South  Level Estimated
Thu 10:08:00 AM 19.7579 -70.5700 169° South  Level Estimated
Thu 10:09:00 AM 19.7579 -70.5700 169° South  Level Estimated
Thu 10:10:00 AM 19.7579 -70.5700 169° South  Level Estimated
Thu 10:11:00 AM 19.7579 -70.5700 169° South  Level Estimated
Thu 10:12:00 AM 19.7579 -70.5700 169° South  Level Estimated
Thu 10:13:00 AM 19.7579 -70.5700 169° South  Level Estimated
Thu 10:14:00 AM 19.7579 -70.5700 169° South  Level Estimated
Thu 10:15:00 AM 19.7579 -70.5700 169° South  Level Estimated
Thu 10:16:00 AM 19.7579 -70.5700 169° South  Level Estimated
Thu 10:17:00 AM 19.7579 -70.5700 169° South  Level Estimated
Thu 10:18:00 AM 19.7579 -70.5700 169° South  Level Estimated
Thu 10:19:00 AM 19.7579 -70.5700 169° South  Level Estimated

Login

Don't have an account? Register now (free) for customized features, flight alerts, and more!